createdAt,value
2017-11-05T00:01:31.097Z,97.60
2017-11-05T00:04:00.261Z,97.60
2017-11-05T00:06:30.200Z,97.80
2017-11-05T00:08:59.878Z,97.80
2017-11-05T00:11:29.228Z,97.90
2017-11-05T00:13:58.602Z,97.90
2017-11-05T00:16:28.340Z,97.80
2017-11-05T00:18:57.697Z,97.90
2017-11-05T00:21:28.158Z,98.20
2017-11-05T00:23:57.317Z,98.20
2017-11-05T00:26:27.453Z,98.40
2017-11-05T00:28:57.195Z,98.30
2017-11-05T00:31:26.554Z,98.40
2017-11-05T00:33:55.910Z,98.50
2017-11-05T00:36:25.701Z,98.50
2017-11-05T00:38:55.058Z,98.60
2017-11-05T00:41:25.197Z,98.40
2017-11-05T00:43:54.351Z,98.40
2017-11-05T00:46:23.701Z,98.70
2017-11-05T00:48:53.425Z,98.40
2017-11-05T00:51:22.777Z,98.40
2017-11-05T00:53:53.238Z,98.30
2017-11-05T00:56:22.591Z,98.30
2017-11-05T00:58:52.715Z,98.50
2017-11-05T01:01:23.180Z,98.40
2017-11-05T01:03:52.548Z,98.30
2017-11-05T01:06:22.680Z,98.30
2017-11-05T01:08:52.405Z,98.30
2017-11-05T01:11:21.760Z,98.20
2017-11-05T01:13:52.249Z,98.20
2017-11-05T01:16:21.601Z,98.20
2017-11-05T01:18:51.740Z,98.60
2017-11-05T01:21:21.217Z,98.60
2017-11-05T01:23:51.150Z,99.00
2017-11-05T01:26:20.517Z,99.00
2017-11-05T01:28:50.486Z,99.20
2017-11-05T01:31:19.497Z,99.40
2017-11-05T01:33:48.854Z,99.40
2017-11-05T01:36:18.233Z,99.60
2017-11-05T01:38:48.149Z,99.70
2017-11-05T01:41:18.411Z,99.70
2017-11-05T01:43:48.413Z,99.70
2017-11-05T01:46:17.581Z,99.80
2017-11-05T01:48:48.369Z,99.70
2017-11-05T01:51:17.374Z,99.70
2017-11-05T01:53:47.178Z,99.70
2017-11-05T01:56:16.660Z,99.60
2017-11-05T01:58:45.814Z,99.60
2017-11-05T02:01:15.621Z,99.60
2017-11-05T02:03:46.089Z,99.60
2017-11-05T02:06:14.757Z,99.50
2017-11-05T02:08:43.228Z,99.50
2017-11-05T02:11:12.669Z,99.50
2017-11-05T02:13:41.685Z,99.60
2017-11-05T02:16:11.041Z,99.60
2017-11-05T02:18:40.860Z,99.60
2017-11-05T02:21:09.545Z,99.60
2017-11-05T02:23:38.360Z,99.50
2017-11-05T02:26:07.390Z,99.50
2017-11-05T02:28:36.195Z,99.50
2017-11-05T02:31:05.065Z,99.40
2017-11-05T02:33:34.806Z,99.40
2017-11-05T02:36:03.474Z,99.40
2017-11-05T02:38:32.543Z,99.40
2017-11-05T02:41:03.208Z,99.40
2017-11-05T02:43:32.572Z,99.40
2017-11-05T02:46:02.015Z,99.40
2017-11-05T02:48:31.051Z,99.40
2017-11-05T02:50:59.954Z,99.40
2017-11-05T02:53:29.176Z,99.40
2017-11-05T02:55:58.484Z,99.40
2017-11-05T02:58:27.851Z,99.40
2017-11-05T03:00:57.328Z,98.60
2017-11-05T03:03:26.802Z,98.60
2017-11-05T03:05:55.809Z,98.20
2017-11-05T03:08:24.296Z,97.90
2017-11-05T03:10:53.071Z,97.60
2017-11-05T03:13:21.728Z,97.80
2017-11-05T03:15:50.384Z,97.70
2017-11-05T03:18:20.124Z,97.80
2017-11-05T03:20:48.589Z,97.80
2017-11-05T03:23:17.065Z,97.80
2017-11-05T03:25:46.897Z,97.70
2017-11-05T03:28:15.560Z,97.70
2017-11-05T03:30:44.038Z,97.50
2017-11-05T03:33:13.060Z,97.60
2017-11-05T03:35:41.528Z,97.50
2017-11-05T03:38:10.191Z,97.40
2017-11-05T03:40:39.330Z,97.40
2017-11-05T03:43:07.794Z,97.50
2017-11-05T03:45:37.830Z,97.80
2017-11-05T03:48:06.605Z,97.80
2017-11-05T03:50:35.285Z,97.90
2017-11-05T03:53:04.292Z,97.90
2017-11-05T03:55:33.259Z,97.80
2017-11-05T03:58:01.941Z,97.60
2017-11-05T04:00:30.829Z,97.50
2017-11-05T04:03:00.217Z,97.40
2017-11-05T04:05:28.877Z,96.50
2017-11-05T04:07:58.300Z,95.80
2017-11-05T04:10:27.101Z,95.80
2017-11-05T04:12:55.746Z,96.10
2017-11-05T04:15:24.972Z,95.50
2017-11-05T04:17:54.092Z,95.50
2017-11-05T04:20:22.728Z,95.40
2017-11-05T04:22:51.956Z,95.90
2017-11-05T04:25:20.961Z,95.80
2017-11-05T04:27:49.612Z,96.20
2017-11-05T04:30:18.271Z,96.20
2017-11-05T04:32:47.744Z,97.00
2017-11-05T04:35:16.010Z,97.00
2017-11-05T04:37:45.459Z,97.20
2017-11-05T04:40:15.305Z,97.30
2017-11-05T04:42:43.757Z,97.20
2017-11-05T04:45:13.176Z,97.60
2017-11-05T04:47:42.174Z,97.60
2017-11-05T04:50:10.831Z,97.70
2017-11-05T04:52:40.853Z,97.80
2017-11-05T04:55:09.780Z,97.80
2017-11-05T04:57:38.053Z,97.80
2017-11-05T05:00:06.313Z,98.20
2017-11-05T05:02:35.301Z,97.80
2017-11-05T05:05:03.758Z,98.00
2017-11-05T05:07:33.520Z,98.00
2017-11-05T05:10:02.789Z,98.00
2017-11-05T05:12:31.817Z,98.10
2017-11-05T05:15:00.265Z,98.10
2017-11-05T05:17:30.526Z,97.90
2017-11-05T05:19:59.172Z,97.90
2017-11-05T05:22:27.826Z,97.90
2017-11-05T05:24:56.853Z,97.60
2017-11-05T05:27:25.502Z,97.60
2017-11-05T05:29:54.173Z,97.80
2017-11-05T05:32:24.945Z,97.70
2017-11-05T05:34:53.397Z,97.70
2017-11-05T05:37:22.398Z,97.90
2017-11-05T05:39:51.307Z,97.80
2017-11-05T05:42:19.757Z,97.80
2017-11-05T05:44:48.409Z,97.80
2017-11-05T05:47:17.485Z,97.60
2017-11-05T05:49:46.136Z,97.70
2017-11-05T05:52:14.784Z,97.50
2017-11-05T05:54:44.529Z,97.40
2017-11-05T05:57:13.520Z,97.30
2017-11-05T05:59:42.172Z,97.30
2017-11-05T06:02:11.769Z,97.00
2017-11-05T06:04:41.197Z,97.10
2017-11-05T06:07:09.845Z,97.00
2017-11-05T06:09:39.261Z,97.00
2017-11-05T06:12:08.480Z,95.20
2017-11-05T06:14:36.925Z,95.20
2017-11-05T06:17:06.472Z,95.40
2017-11-05T06:19:35.117Z,95.40
2017-11-05T06:22:04.529Z,95.10
2017-11-05T06:24:34.269Z,94.10
2017-11-05T06:27:02.920Z,94.10
2017-11-05T06:29:32.132Z,94.30
2017-11-05T06:32:01.257Z,94.30
2017-11-05T06:34:30.243Z,94.40
2017-11-05T06:36:58.893Z,94.80
2017-11-05T06:39:29.053Z,95.80
2017-11-05T06:41:57.501Z,95.80
2017-11-05T06:44:25.957Z,95.90
2017-11-05T06:46:55.565Z,96.50
2017-11-05T06:49:24.784Z,96.80
2017-11-05T06:51:53.241Z,96.80
2017-11-05T06:54:23.011Z,97.40
2017-11-05T06:56:51.677Z,97.40
2017-11-05T06:59:20.332Z,97.50
2017-11-05T07:01:49.168Z,97.40
2017-11-05T07:04:17.809Z,97.30
2017-11-05T07:06:46.480Z,97.30
2017-11-05T07:09:16.492Z,97.40
2017-11-05T07:11:45.706Z,97.50
2017-11-05T07:14:14.365Z,97.50
2017-11-05T07:16:44.119Z,97.70
2017-11-05T07:19:12.552Z,97.70
2017-11-05T07:21:41.988Z,97.50
2017-11-05T07:24:11.289Z,97.50
2017-11-05T07:26:40.080Z,97.50
2017-11-05T07:29:09.093Z,97.50
2017-11-05T07:31:38.178Z,97.60
2017-11-05T07:34:07.663Z,97.80
2017-11-05T07:36:36.636Z,97.70
2017-11-05T07:39:05.954Z,97.60
2017-11-05T07:41:35.009Z,97.70
2017-11-05T07:44:03.650Z,97.70
2017-11-05T07:46:32.416Z,97.90
2017-11-05T07:49:00.860Z,97.70
2017-11-05T07:51:30.082Z,97.90
2017-11-05T07:53:59.473Z,97.90
2017-11-05T07:56:28.129Z,97.90
2017-11-05T07:58:57.555Z,97.90
2017-11-05T08:01:26.665Z,97.80
2017-11-05T08:03:55.671Z,97.90
2017-11-05T08:06:24.784Z,98.00
2017-11-05T08:08:53.746Z,98.10
2017-11-05T08:11:23.095Z,98.00
2017-11-05T08:13:52.313Z,97.60
2017-11-05T08:16:22.153Z,97.40
2017-11-05T08:18:50.636Z,97.40
2017-11-05T08:21:19.368Z,97.50
2017-11-05T08:23:48.616Z,97.50
2017-11-05T08:26:17.609Z,97.60
2017-11-05T08:28:46.972Z,97.60
2017-11-05T08:31:17.133Z,97.60
2017-11-05T08:33:48.177Z,97.40
2017-11-05T08:36:17.858Z,97.30
2017-11-05T08:38:47.201Z,97.30
2017-11-05T08:41:15.887Z,97.20
2017-11-05T08:43:46.602Z,97.10
2017-11-05T08:46:15.961Z,97.10
2017-11-05T08:48:46.684Z,97.00
2017-11-05T08:51:16.807Z,96.80
2017-11-05T08:53:47.745Z,96.50
2017-11-05T08:56:16.745Z,96.40
2017-11-05T08:58:47.314Z,96.50
2017-11-05T09:01:15.977Z,96.40
2017-11-05T09:03:44.440Z,96.20
2017-11-05T09:06:14.168Z,96.30
2017-11-05T09:08:43.528Z,96.60
2017-11-05T09:11:13.304Z,96.60
2017-11-05T09:13:43.792Z,96.50
2017-11-05T09:16:12.784Z,96.00
2017-11-05T09:18:41.780Z,96.00
2017-11-05T09:21:11.170Z,95.80
2017-11-05T09:23:39.973Z,95.60
2017-11-05T09:26:08.636Z,95.40
2017-11-05T09:28:38.360Z,95.70
2017-11-05T09:31:07.713Z,94.80
2017-11-05T09:33:37.066Z,94.50
2017-11-05T09:36:07.468Z,94.40
2017-11-05T09:38:36.812Z,94.40
2017-11-05T09:41:06.175Z,93.40
2017-11-05T09:43:35.906Z,93.70
2017-11-05T09:46:05.256Z,93.10
2017-11-05T09:48:36.042Z,92.70
2017-11-05T09:51:05.393Z,92.70
2017-11-05T09:53:35.521Z,91.60
2017-11-05T09:56:04.991Z,91.60
2017-11-05T09:58:34.342Z,91.70
2017-11-05T10:01:03.337Z,91.20
2017-11-05T10:03:32.793Z,91.30
2017-11-05T10:06:02.141Z,90.30
2017-11-05T10:08:31.485Z,90.00
2017-11-05T10:11:01.452Z,87.60
2017-11-05T10:13:30.809Z,88.90
2017-11-05T10:16:00.957Z,90.30
2017-11-05T10:18:30.314Z,90.30
2017-11-05T10:20:59.659Z,86.40
2017-11-05T10:23:29.413Z,85.80
2017-11-05T10:25:58.882Z,86.80
2017-11-05T10:28:29.304Z,84.30
2017-11-05T10:30:58.674Z,84.40
2017-11-05T10:33:29.100Z,86.70
2017-11-05T10:35:59.212Z,87.90
2017-11-05T10:38:29.677Z,84.30
2017-11-05T10:40:59.038Z,84.30
2017-11-05T10:43:29.517Z,85.10
2017-11-05T10:45:59.905Z,81.90
2017-11-05T10:48:29.832Z,81.90
2017-11-05T10:50:59.180Z,82.40
2017-11-05T10:53:28.525Z,81.60
2017-11-05T10:55:58.260Z,81.90
2017-11-05T10:58:27.429Z,80.90
2017-11-05T11:00:56.788Z,79.20
2017-11-05T11:03:26.574Z,79.90
2017-11-05T11:05:55.935Z,78.20
2017-11-05T11:08:25.084Z,77.10
2017-11-05T11:10:54.869Z,76.80
2017-11-05T11:13:24.217Z,78.20
2017-11-05T11:15:54.349Z,78.40
2017-11-05T11:18:24.473Z,80.00
2017-11-05T11:20:54.968Z,78.10
2017-11-05T11:23:24.421Z,78.10
2017-11-05T11:25:53.774Z,80.30
2017-11-05T11:28:23.708Z,80.00
2017-11-05T11:30:53.314Z,81.20
2017-11-05T11:33:23.448Z,79.00
2017-11-05T11:35:52.809Z,79.10
2017-11-05T11:38:22.161Z,77.70
2017-11-05T11:40:51.870Z,76.90
2017-11-05T11:43:21.232Z,76.70
2017-11-05T11:45:51.467Z,79.10
2017-11-05T11:48:20.857Z,79.00
2017-11-05T11:50:50.972Z,81.40
2017-11-05T11:53:21.744Z,80.80
2017-11-05T11:55:51.089Z,80.80
2017-11-05T11:58:20.452Z,83.30
2017-11-05T12:00:49.944Z,81.50
2017-11-05T12:03:18.948Z,82.00
2017-11-05T12:05:48.437Z,82.80
2017-11-05T12:08:17.896Z,82.70
2017-11-05T12:10:47.849Z,82.80
2017-11-05T12:13:17.299Z,82.70
2017-11-05T12:15:47.213Z,81.10
2017-11-05T12:18:16.547Z,80.50
2017-11-05T12:20:45.922Z,77.90
2017-11-05T12:23:15.884Z,69.80
2017-11-05T12:25:45.234Z,66.20
2017-11-05T12:28:15.653Z,75.30
2017-11-05T12:30:45.013Z,75.40
2017-11-05T12:33:14.005Z,77.70
2017-11-05T12:35:43.717Z,78.80
2017-11-05T12:38:13.057Z,81.30
2017-11-05T12:40:42.053Z,82.40
2017-11-05T12:43:12.282Z,79.50
2017-11-05T12:45:42.387Z,80.40
2017-11-05T12:48:11.740Z,80.40
2017-11-05T12:50:41.565Z,80.10
2017-11-05T12:53:11.671Z,81.70
2017-11-05T12:55:41.293Z,81.60
2017-11-05T12:58:11.397Z,81.40
2017-11-05T13:00:40.754Z,81.50
2017-11-05T13:03:11.606Z,82.50
2017-11-05T13:05:41.010Z,82.40
2017-11-05T13:08:11.862Z,80.80
2017-11-05T13:10:41.209Z,80.70
2017-11-05T13:13:11.154Z,80.30
2017-11-05T13:15:40.511Z,77.60
2017-11-05T13:18:10.120Z,75.20
2017-11-05T13:20:39.860Z,79.40
2017-11-05T13:23:09.969Z,79.00
2017-11-05T13:25:40.362Z,79.10
2017-11-05T13:28:09.703Z,79.00
2017-11-05T13:30:38.853Z,77.10
2017-11-05T13:33:08.533Z,77.50
2017-11-05T13:35:37.880Z,80.10
2017-11-05T13:38:08.349Z,82.80
2017-11-05T13:40:37.695Z,82.90
2017-11-05T13:43:07.053Z,84.00
2017-11-05T13:45:36.453Z,84.20
2017-11-05T13:48:05.796Z,86.80
2017-11-05T13:50:36.185Z,88.90
2017-11-05T13:53:05.539Z,88.90
2017-11-05T13:55:34.879Z,87.90
2017-11-05T13:58:04.580Z,88.20
2017-11-05T14:00:33.232Z,88.70
2017-11-05T14:03:03.362Z,89.70
2017-11-05T14:05:32.889Z,89.70
2017-11-05T14:08:02.236Z,90.50
2017-11-05T14:10:31.583Z,89.50
2017-11-05T14:13:01.008Z,87.50
2017-11-05T14:15:29.994Z,87.30
2017-11-05T14:17:59.341Z,86.00
2017-11-05T14:20:29.601Z,85.90
2017-11-05T14:22:58.753Z,85.50
2017-11-05T14:25:28.092Z,87.20
2017-11-05T14:27:57.813Z,88.50
2017-11-05T14:30:27.405Z,87.90
2017-11-05T14:32:56.748Z,89.00
2017-11-05T14:35:27.540Z,88.60
2017-11-05T14:37:56.712Z,89.10
2017-11-05T14:40:26.062Z,88.40
2017-11-05T14:42:55.773Z,86.30
2017-11-05T14:45:24.764Z,86.60
2017-11-05T14:47:54.726Z,86.00
2017-11-05T14:50:24.496Z,87.30
2017-11-05T14:52:53.491Z,87.30
2017-11-05T14:55:22.489Z,86.70
2017-11-05T14:57:51.950Z,86.90
2017-11-05T15:00:20.945Z,88.20
2017-11-05T15:02:49.784Z,86.90
2017-11-05T15:05:19.805Z,87.60
2017-11-05T15:07:49.919Z,88.90
2017-11-05T15:10:19.789Z,88.50
2017-11-05T15:12:49.127Z,88.50
2017-11-05T15:15:18.124Z,88.90
2017-11-05T15:17:48.210Z,89.70
2017-11-05T15:20:17.558Z,89.70
2017-11-05T15:22:46.837Z,89.70
2017-11-05T15:25:17.618Z,90.00
2017-11-05T15:27:46.958Z,90.00
2017-11-05T15:30:15.958Z,90.00
2017-11-05T15:32:46.429Z,88.20
2017-11-05T15:35:15.772Z,88.30
2017-11-05T15:37:44.417Z,86.20
2017-11-05T15:40:13.608Z,87.60
2017-11-05T15:42:42.772Z,86.80
2017-11-05T15:45:12.360Z,88.90
2017-11-05T15:47:42.041Z,88.90
2017-11-05T15:50:11.392Z,87.30
2017-11-05T15:52:40.617Z,88.80
2017-11-05T15:55:10.529Z,88.70
2017-11-05T15:57:39.689Z,88.40
2017-11-05T16:00:10.141Z,85.80
2017-11-05T16:02:39.288Z,85.80
2017-11-05T16:05:08.632Z,86.60
2017-11-05T16:07:38.349Z,85.80
2017-11-05T16:10:07.693Z,87.90
2017-11-05T16:12:37.041Z,87.60
2017-11-05T16:15:07.233Z,88.50
2017-11-05T16:17:37.413Z,89.00
2017-11-05T16:20:06.771Z,89.00
2017-11-05T16:22:36.452Z,89.70
2017-11-05T16:25:06.046Z,90.00
2017-11-05T16:27:35.045Z,89.70
2017-11-05T16:30:05.635Z,90.40
2017-11-05T16:32:34.977Z,90.70
2017-11-05T16:35:05.831Z,91.30
2017-11-05T16:37:36.068Z,91.30
2017-11-05T16:40:05.114Z,91.10
2017-11-05T16:42:34.453Z,91.50
2017-11-05T16:45:04.175Z,91.40
2017-11-05T16:47:33.510Z,91.10
2017-11-05T16:50:02.857Z,91.40
2017-11-05T16:52:32.597Z,90.90
2017-11-05T16:55:01.937Z,90.60
2017-11-05T16:57:32.813Z,91.10
2017-11-05T17:00:02.929Z,91.20
2017-11-05T17:02:32.582Z,91.20
2017-11-05T17:05:01.577Z,91.80
2017-11-05T17:07:30.239Z,92.10
2017-11-05T17:09:59.718Z,92.20
2017-11-05T17:12:29.055Z,92.40
2017-11-05T17:14:58.045Z,92.70
2017-11-05T17:17:27.407Z,92.80
2017-11-05T17:19:56.746Z,93.00
2017-11-05T17:22:26.087Z,93.10
2017-11-05T17:24:56.957Z,93.70
2017-11-05T17:27:26.297Z,93.70
2017-11-05T17:29:55.716Z,93.90
2017-11-05T17:32:25.108Z,93.90
2017-11-05T17:34:56.038Z,94.10
2017-11-05T17:37:26.900Z,94.20
2017-11-05T17:39:56.993Z,94.20
2017-11-05T17:42:27.453Z,94.30
2017-11-05T17:44:56.795Z,94.30
2017-11-05T17:47:26.137Z,94.30
2017-11-05T17:49:55.997Z,94.40
2017-11-05T17:52:25.812Z,94.60
2017-11-05T17:54:54.993Z,94.60
2017-11-05T17:57:24.345Z,94.50
2017-11-05T17:59:56.890Z,94.60
2017-11-05T18:02:26.220Z,94.60
2017-11-05T18:04:56.346Z,94.60
2017-11-05T18:07:25.937Z,94.60
2017-11-05T18:09:58.725Z,94.70
2017-11-05T18:12:28.870Z,94.70
2017-11-05T18:14:59.293Z,94.90
2017-11-05T18:17:28.655Z,94.90
2017-11-05T18:19:59.009Z,95.10
2017-11-05T18:22:28.364Z,95.00
2017-11-05T18:24:57.722Z,95.30
2017-11-05T18:27:27.681Z,95.50
2017-11-05T18:29:57.023Z,95.40
2017-11-05T18:32:26.405Z,95.40
2017-11-05T18:34:57.289Z,95.20
2017-11-05T18:37:26.676Z,95.30
2017-11-05T18:39:56.029Z,95.30
2017-11-05T18:42:26.446Z,95.50
2017-11-05T18:44:56.642Z,95.70
2017-11-05T18:47:26.112Z,95.70
2017-11-05T18:49:56.380Z,95.70
2017-11-05T18:52:25.823Z,95.50
2017-11-05T18:54:55.237Z,95.50
2017-11-05T18:57:24.916Z,95.60
2017-11-05T18:59:55.159Z,95.60
2017-11-05T19:02:25.418Z,95.70
2017-11-05T19:04:54.770Z,95.60
2017-11-05T19:07:25.105Z,95.60
2017-11-05T19:09:54.478Z,95.80
2017-11-05T19:12:24.596Z,95.70
2017-11-05T19:14:54.733Z,95.90
2017-11-05T19:17:24.173Z,95.90
2017-11-05T19:19:53.520Z,96.10
2017-11-05T19:22:23.059Z,95.90
2017-11-05T19:24:52.413Z,96.00
2017-11-05T19:27:22.536Z,96.00
2017-11-05T19:29:53.574Z,96.10
2017-11-05T19:32:23.708Z,96.00
2017-11-05T19:34:53.070Z,96.00
2017-11-05T19:37:22.420Z,96.00
2017-11-05T19:39:53.052Z,95.90
2017-11-05T19:42:23.404Z,96.20
2017-11-05T19:44:52.769Z,95.80
2017-11-05T19:47:21.425Z,95.60
2017-11-05T19:49:52.270Z,96.10
2017-11-05T19:52:22.629Z,96.40
2017-11-05T19:54:51.976Z,96.40
2017-11-05T19:57:22.308Z,96.80
2017-11-05T19:59:52.434Z,96.70
2017-11-05T20:02:21.803Z,96.70
2017-11-05T20:04:51.157Z,97.10
2017-11-05T20:07:20.509Z,97.00
2017-11-05T20:09:49.875Z,96.90
2017-11-05T20:12:19.225Z,96.90
2017-11-05T20:14:49.361Z,96.90
2017-11-05T20:17:18.722Z,96.90
2017-11-05T20:19:48.070Z,96.90
2017-11-05T20:22:17.689Z,96.80
2017-11-05T20:24:47.033Z,96.90
2017-11-05T20:27:16.389Z,96.80
2017-11-05T20:29:46.091Z,96.70
2017-11-05T20:32:15.436Z,97.10
2017-11-05T20:34:44.780Z,97.00
2017-11-05T20:37:14.294Z,97.10
2017-11-05T20:39:43.650Z,97.10
2017-11-05T20:42:12.994Z,97.00
2017-11-05T20:44:42.659Z,97.10
2017-11-05T20:47:12.248Z,97.00
2017-11-05T20:49:41.605Z,97.00
2017-11-05T20:52:11.117Z,97.00
2017-11-05T20:54:40.460Z,96.80
2017-11-05T20:57:09.827Z,96.90
2017-11-05T20:59:39.467Z,97.00
2017-11-05T21:02:08.600Z,97.20
2017-11-05T21:04:37.941Z,97.00
2017-11-05T21:07:07.613Z,97.10
2017-11-05T21:09:36.954Z,97.20
2017-11-05T21:12:06.310Z,97.30
2017-11-05T21:14:36.032Z,97.20
2017-11-05T21:17:05.400Z,97.40
2017-11-05T21:19:34.763Z,97.50
2017-11-05T21:22:04.326Z,97.50
2017-11-05T21:24:33.716Z,97.60
2017-11-05T21:27:03.310Z,97.70
2017-11-05T21:29:33.557Z,97.50
2017-11-05T21:32:02.913Z,97.50
2017-11-05T21:34:32.868Z,97.60
2017-11-05T21:37:02.481Z,97.90
2017-11-05T21:39:31.637Z,97.80
2017-11-05T21:42:01.856Z,97.70
2017-11-05T21:44:31.973Z,97.90
2017-11-05T21:47:02.105Z,97.80
2017-11-05T21:49:31.468Z,97.80
2017-11-05T21:52:00.817Z,97.80
2017-11-05T21:54:30.531Z,97.70
2017-11-05T21:56:59.891Z,97.70
2017-11-05T21:59:29.831Z,97.70
2017-11-05T22:01:59.064Z,97.70
2017-11-05T22:04:28.995Z,97.90
2017-11-05T22:06:58.529Z,97.90
2017-11-05T22:09:27.911Z,97.90
2017-11-05T22:11:57.260Z,98.00
2017-11-05T22:14:26.765Z,98.00
2017-11-05T22:16:57.075Z,97.80
2017-11-05T22:19:26.441Z,97.80
2017-11-05T22:21:55.956Z,97.70
2017-11-05T22:24:26.097Z,97.90
2017-11-05T22:26:55.446Z,97.90
2017-11-05T22:29:24.793Z,97.80
2017-11-05T22:31:54.575Z,97.60
2017-11-05T22:34:24.511Z,97.40
2017-11-05T22:36:53.908Z,97.40
2017-11-05T22:39:23.930Z,97.30
2017-11-05T22:41:53.843Z,97.50
2017-11-05T22:44:23.200Z,97.20
2017-11-05T22:46:52.644Z,97.40
2017-11-05T22:49:22.893Z,97.40
2017-11-05T22:51:52.331Z,97.40
2017-11-05T22:54:21.731Z,97.50
2017-11-05T22:56:51.609Z,97.50
2017-11-05T22:59:20.965Z,97.50
2017-11-05T23:01:51.427Z,97.80
2017-11-05T23:04:20.574Z,97.80
2017-11-05T23:06:49.913Z,97.80
2017-11-05T23:09:19.628Z,97.80
2017-11-05T23:11:48.976Z,97.70
2017-11-05T23:14:18.322Z,97.80
2017-11-05T23:16:48.233Z,97.60
2017-11-05T23:19:17.593Z,97.70
2017-11-05T23:21:46.984Z,97.70
2017-11-05T23:24:16.953Z,97.90
2017-11-05T23:26:46.305Z,98.00
2017-11-05T23:29:16.436Z,98.00
2017-11-05T23:31:46.823Z,98.10
2017-11-05T23:34:16.170Z,98.10
2017-11-05T23:36:46.296Z,97.80
2017-11-05T23:39:16.020Z,97.80
2017-11-05T23:41:45.369Z,97.90
2017-11-05T23:44:14.716Z,98.00
2017-11-05T23:46:44.775Z,97.70
2017-11-05T23:49:14.112Z,97.60
2017-11-05T23:51:43.474Z,97.40
2017-11-05T23:54:13.144Z,97.50
2017-11-05T23:56:42.501Z,97.50
2017-11-05T23:59:12.629Z,97.40
